createdAt,value
2023-01-29T16:41:43.926Z,5.46
2023-01-29T17:16:36.095Z,5.38
2023-01-29T17:21:37.683Z,5.27
2023-01-29T17:26:37.575Z,5.36
2023-01-29T17:37:23.573Z,5.15
2023-01-29T17:42:23.129Z,5.21
2023-01-29T17:48:35.482Z,5.37
2023-01-29T18:00:31.204Z,5.35
2023-01-29T18:12:15.122Z,5.28
2023-01-29T18:17:29.016Z,5.23
2023-01-29T18:40:53.243Z,5.20
2023-01-29T18:58:28.997Z,5.17
2023-01-29T19:03:42.015Z,5.04
2023-01-29T19:08:48.237Z,5.05
2023-01-29T19:13:53.519Z,5.03
2023-01-29T19:18:56.169Z,5.04
2023-01-29T19:24:14.749Z,5.06
2023-01-29T19:29:29.904Z,5.08
2023-01-29T19:34:38.735Z,5.02
2023-01-29T19:39:44.494Z,4.97
2023-01-29T19:45:01.783Z,5.00
2023-01-29T19:50:10.218Z,5.01
2023-01-29T19:55:14.369Z,4.93
2023-01-29T20:00:19.118Z,5.04
2023-01-29T20:05:22.018Z,4.94
2023-01-29T20:10:26.175Z,4.98
2023-01-29T20:15:26.093Z,5.11
2023-01-29T20:20:23.148Z,4.98
2023-01-29T20:25:26.682Z,4.99
2023-01-29T20:30:25.984Z,4.95
2023-01-29T20:35:27.604Z,4.99
2023-01-29T20:40:27.487Z,4.95
2023-01-29T20:45:24.375Z,5.05
2023-01-29T20:50:20.899Z,4.98
2023-01-29T20:55:17.379Z,5.13
2023-01-29T21:06:14.819Z,5.14
2023-01-29T21:11:11.391Z,5.25
2023-01-29T21:16:10.781Z,5.10
2023-01-29T21:21:07.326Z,5.15
2023-01-29T21:26:05.295Z,5.19
2023-01-29T21:37:02.706Z,5.12
2023-01-29T21:42:18.107Z,5.11
2023-01-29T21:47:20.709Z,5.21
2023-01-29T21:52:19.027Z,5.23
2023-01-29T21:57:23.648Z,5.17
2023-01-29T22:02:22.197Z,5.22
2023-01-29T22:07:21.725Z,5.20
2023-01-29T22:12:25.610Z,5.28
2023-01-29T22:28:32.326Z,5.23
2023-01-29T22:33:33.445Z,5.25
2023-01-29T22:38:30.849Z,5.19
2023-01-29T22:43:33.119Z,5.21
2023-01-29T22:48:36.659Z,5.24
2023-01-29T22:53:33.248Z,5.23
2023-01-29T22:58:29.793Z,5.26
2023-01-29T23:03:28.571Z,5.22
2023-01-29T23:08:29.573Z,5.20
2023-01-29T23:18:56.106Z,5.26
2023-01-29T23:23:55.395Z,5.25
2023-01-29T23:28:56.683Z,5.20
2023-01-29T23:33:54.157Z,5.22
2023-01-29T23:38:50.710Z,5.20
2023-01-29T23:43:47.194Z,5.20
2023-01-29T23:48:43.707Z,5.17
2023-01-29T23:53:43.029Z,5.24
2023-01-29T23:58:39.660Z,5.25
